createdAt,value
2019-03-19T00:00:47.148Z,4.20
2019-03-19T00:03:16.883Z,4.23
2019-03-19T00:05:46.159Z,4.40
2019-03-19T00:08:15.866Z,4.23
2019-03-19T00:10:48.403Z,4.43
2019-03-19T00:13:17.746Z,4.10
2019-03-19T00:15:50.658Z,4.53
2019-03-19T00:18:20.412Z,3.50
2019-03-19T00:20:52.127Z,3.30
2019-03-19T00:23:21.496Z,3.87
2019-03-19T00:25:53.115Z,3.87
2019-03-19T00:28:22.210Z,4.47
2019-03-19T00:30:51.522Z,4.30
2019-03-19T00:33:20.804Z,4.03
2019-03-19T00:35:50.436Z,3.87
2019-03-19T00:38:19.810Z,4.60
2019-03-19T00:40:49.173Z,3.63
2019-03-19T00:43:18.523Z,3.70
2019-03-19T00:45:47.951Z,4.00
2019-03-19T00:48:17.741Z,4.30
2019-03-19T00:50:47.400Z,4.30
2019-03-19T00:53:18.911Z,3.80
2019-03-19T00:55:48.363Z,3.97
2019-03-19T00:58:17.729Z,3.57
2019-03-19T01:00:47.031Z,3.90
2019-03-19T01:03:16.349Z,4.33
2019-03-19T01:05:45.692Z,4.80
2019-03-19T01:08:15.001Z,5.00
2019-03-19T01:10:44.473Z,4.47
2019-03-19T01:13:13.747Z,3.87
2019-03-19T01:15:46.068Z,4.27
2019-03-19T01:18:15.424Z,4.20
2019-03-19T01:20:47.123Z,4.10
2019-03-19T01:23:16.465Z,4.00
2019-03-19T01:25:55.137Z,4.33
2019-03-19T01:28:17.445Z,4.03
2019-03-19T01:30:49.119Z,4.17
2019-03-19T01:33:18.463Z,3.73
2019-03-19T01:35:49.273Z,4.13
2019-03-19T01:38:19.373Z,4.07
2019-03-19T01:40:49.652Z,4.10
2019-03-19T01:43:19.321Z,3.67
2019-03-19T01:45:48.933Z,4.20
2019-03-19T01:48:18.221Z,4.00
2019-03-19T01:50:47.545Z,4.53
2019-03-19T01:53:17.217Z,4.03
2019-03-19T01:55:47.007Z,3.77
2019-03-19T01:58:16.328Z,4.23
2019-03-19T02:00:45.883Z,4.20
2019-03-19T02:03:15.312Z,3.80
2019-03-19T02:05:44.617Z,4.07
2019-03-19T02:08:13.973Z,4.07
2019-03-19T02:10:43.281Z,3.60
2019-03-19T02:13:12.612Z,3.60
2019-03-19T02:15:42.291Z,3.83
2019-03-19T02:18:14.266Z,3.80
2019-03-19T02:20:45.119Z,4.50
2019-03-19T02:23:14.473Z,4.03
2019-03-19T02:25:43.747Z,3.90
2019-03-19T02:28:13.126Z,4.93
2019-03-19T02:30:42.421Z,4.33
2019-03-19T02:33:11.687Z,4.40
2019-03-19T02:35:42.573Z,4.27
2019-03-19T02:38:11.979Z,4.60
2019-03-19T02:40:41.360Z,4.80
2019-03-19T02:43:12.449Z,4.60
2019-03-19T02:45:42.019Z,5.27
2019-03-19T02:48:14.375Z,4.90
2019-03-19T02:50:44.393Z,6.17
2019-03-19T02:53:13.847Z,6.40
2019-03-19T02:55:43.581Z,7.27
2019-03-19T02:58:12.975Z,7.07
2019-03-19T03:00:42.322Z,8.73
2019-03-19T03:03:11.679Z,8.60
2019-03-19T03:05:43.982Z,8.50
2019-03-19T03:08:13.279Z,8.20
2019-03-19T03:10:42.977Z,7.53
2019-03-19T03:13:12.280Z,7.93
2019-03-19T03:15:42.171Z,8.00
2019-03-19T03:18:13.008Z,9.07
2019-03-19T03:20:43.409Z,10.50
2019-03-19T03:23:15.344Z,9.33
2019-03-19T03:25:47.226Z,10.10
2019-03-19T03:28:16.518Z,10.30
2019-03-19T03:30:46.209Z,10.60
2019-03-19T03:33:15.573Z,10.00
2019-03-19T03:35:45.717Z,11.10
2019-03-19T03:38:15.077Z,12.10
2019-03-19T03:40:44.539Z,10.97
2019-03-19T03:43:13.893Z,11.33
2019-03-19T03:45:43.253Z,11.60
2019-03-19T03:48:12.665Z,11.23
2019-03-19T03:50:42.432Z,11.50
2019-03-19T03:53:11.728Z,12.70
2019-03-19T03:55:41.113Z,13.60
2019-03-19T03:58:14.719Z,12.43
2019-03-19T04:00:44.016Z,14.43
2019-03-19T04:03:13.638Z,14.60
2019-03-19T04:05:43.323Z,15.20
2019-03-19T04:08:12.703Z,16.07
2019-03-19T04:10:42.098Z,15.30
2019-03-19T04:13:11.453Z,17.27
2019-03-19T04:15:41.205Z,16.10
2019-03-19T04:18:11.062Z,16.40
2019-03-19T04:20:40.409Z,16.50
2019-03-19T04:23:10.128Z,14.43
2019-03-19T04:25:39.453Z,14.50
2019-03-19T04:28:08.755Z,13.87
2019-03-19T04:30:38.210Z,13.87
2019-03-19T04:33:07.585Z,14.27
2019-03-19T04:35:36.938Z,14.37
2019-03-19T04:38:07.000Z,14.00
2019-03-19T04:40:36.316Z,13.43
2019-03-19T04:43:05.913Z,11.87
2019-03-19T04:45:35.571Z,10.93
2019-03-19T04:48:04.946Z,10.90
2019-03-19T04:50:34.543Z,10.17
2019-03-19T04:53:03.897Z,9.27
2019-03-19T04:55:33.855Z,8.93
2019-03-19T04:58:03.117Z,8.90
2019-03-19T05:00:32.516Z,8.37
2019-03-19T05:03:01.913Z,7.87
2019-03-19T05:05:31.567Z,7.50
2019-03-19T05:08:01.385Z,7.47
2019-03-19T05:10:30.773Z,7.50
2019-03-19T05:13:00.872Z,7.73
2019-03-19T05:15:30.215Z,7.23
2019-03-19T05:17:59.559Z,7.90
2019-03-19T05:20:29.019Z,8.53
2019-03-19T05:22:58.683Z,7.80
2019-03-19T05:25:28.013Z,8.03
2019-03-19T05:27:57.631Z,8.60
2019-03-19T05:30:30.089Z,8.50
2019-03-19T05:32:59.384Z,9.10
2019-03-19T05:35:28.922Z,8.90
2019-03-19T05:37:58.197Z,9.27
2019-03-19T05:40:27.577Z,9.73
2019-03-19T05:42:57.645Z,9.40
2019-03-19T05:45:26.989Z,10.17
2019-03-19T05:47:56.237Z,10.10
2019-03-19T05:50:25.584Z,10.73
2019-03-19T05:52:54.958Z,11.10
2019-03-19T05:55:24.711Z,12.50
2019-03-19T05:57:53.993Z,11.77
2019-03-19T06:00:24.699Z,12.10
2019-03-19T06:02:54.013Z,11.80
2019-03-19T06:05:23.385Z,11.70
2019-03-19T06:07:53.035Z,11.67
2019-03-19T06:10:22.429Z,11.60
2019-03-19T06:12:53.369Z,12.47
2019-03-19T06:15:26.567Z,13.90
2019-03-19T06:17:55.934Z,13.77
2019-03-19T06:20:25.571Z,14.03
2019-03-19T06:22:54.949Z,14.50
2019-03-19T06:25:24.291Z,14.23
2019-03-19T06:28:00.470Z,14.20
2019-03-19T06:30:25.042Z,13.40
2019-03-19T06:32:54.776Z,14.10
2019-03-19T06:35:24.130Z,13.47
2019-03-19T06:37:54.033Z,14.13
2019-03-19T06:40:23.757Z,14.13
2019-03-19T06:42:53.150Z,14.77
2019-03-19T06:45:23.276Z,14.90
2019-03-19T06:47:53.226Z,14.13
2019-03-19T06:50:22.846Z,14.20
2019-03-19T06:52:52.340Z,14.73
2019-03-19T06:55:21.726Z,15.37
2019-03-19T06:57:51.018Z,15.00
2019-03-19T07:00:20.354Z,15.60
2019-03-19T07:02:49.934Z,15.40
2019-03-19T07:05:19.437Z,15.43
2019-03-19T07:07:48.828Z,15.53
2019-03-19T07:10:18.076Z,14.03
2019-03-19T07:12:48.933Z,15.37
2019-03-19T07:15:18.272Z,14.83
2019-03-19T07:17:47.650Z,14.47
2019-03-19T07:20:16.936Z,14.00
2019-03-19T07:22:46.317Z,15.30
2019-03-19T07:25:23.181Z,14.07
2019-03-19T07:27:53.002Z,14.00
2019-03-19T07:30:23.708Z,13.50
2019-03-19T07:32:53.298Z,13.80
2019-03-19T07:35:22.690Z,12.80
2019-03-19T07:37:51.991Z,12.20
2019-03-19T07:40:21.669Z,11.93
2019-03-19T07:42:53.594Z,13.23
2019-03-19T07:45:22.896Z,10.47
2019-03-19T07:47:52.275Z,11.57
2019-03-19T07:50:21.687Z,11.47
2019-03-19T07:52:50.983Z,11.83
2019-03-19T07:55:20.601Z,11.43
2019-03-19T07:57:50.000Z,11.47
2019-03-19T08:00:19.458Z,11.30
2019-03-19T08:02:49.280Z,11.50
2019-03-19T08:05:18.593Z,11.27
2019-03-19T08:07:47.851Z,11.10
2019-03-19T08:10:17.131Z,11.73
2019-03-19T08:12:46.779Z,10.73
2019-03-19T08:15:16.141Z,11.37
2019-03-19T08:17:45.684Z,11.07
2019-03-19T08:20:15.202Z,9.77
2019-03-19T08:22:44.807Z,9.63
2019-03-19T08:25:14.190Z,9.37
2019-03-19T08:27:43.694Z,10.73
2019-03-19T08:30:15.023Z,9.57
2019-03-19T08:32:44.286Z,10.97
2019-03-19T08:35:13.878Z,9.90
2019-03-19T08:37:43.461Z,9.97
2019-03-19T08:40:13.246Z,9.70
2019-03-19T08:42:42.855Z,9.30
2019-03-19T08:45:12.983Z,9.10
2019-03-19T08:47:42.511Z,9.90
2019-03-19T08:50:14.171Z,9.67
2019-03-19T08:52:43.496Z,9.80
2019-03-19T08:55:12.843Z,9.93
2019-03-19T08:57:42.427Z,10.03
2019-03-19T09:00:14.568Z,9.63
2019-03-19T09:02:43.892Z,10.10
2019-03-19T09:05:13.573Z,9.57
2019-03-19T09:07:42.871Z,9.90
2019-03-19T09:10:12.658Z,8.87
2019-03-19T09:12:42.375Z,8.57
2019-03-19T09:15:11.833Z,9.30
2019-03-19T09:17:41.273Z,10.53
2019-03-19T09:20:12.149Z,9.13
2019-03-19T09:22:41.710Z,8.63
2019-03-19T09:25:11.075Z,9.60
2019-03-19T09:27:40.438Z,8.60
2019-03-19T09:30:12.407Z,8.93
2019-03-19T09:32:41.714Z,8.80
2019-03-19T09:35:11.148Z,8.63
2019-03-19T09:37:44.496Z,8.60
2019-03-19T09:40:13.270Z,9.30
2019-03-19T09:42:42.887Z,8.10
2019-03-19T09:45:13.169Z,8.07
2019-03-19T09:47:42.486Z,8.13
2019-03-19T09:50:13.467Z,8.27
2019-03-19T09:52:42.854Z,8.40
2019-03-19T09:55:12.532Z,9.03
2019-03-19T09:57:41.878Z,8.03
2019-03-19T10:00:14.118Z,7.80
2019-03-19T10:02:43.726Z,7.93
2019-03-19T10:05:13.125Z,7.43
2019-03-19T10:07:42.474Z,7.60
2019-03-19T10:10:12.954Z,7.23
2019-03-19T10:12:42.534Z,8.07
2019-03-19T10:15:12.762Z,8.27
2019-03-19T10:17:42.217Z,8.60
2019-03-19T10:20:13.152Z,8.23
2019-03-19T10:22:42.406Z,7.73
2019-03-19T10:25:11.950Z,7.57
2019-03-19T10:27:41.298Z,7.43
2019-03-19T10:30:14.278Z,7.47
2019-03-19T10:32:43.559Z,7.07
2019-03-19T10:35:12.986Z,6.90
2019-03-19T10:37:42.620Z,6.70
2019-03-19T10:40:12.044Z,6.53
2019-03-19T10:42:41.374Z,6.73
2019-03-19T10:45:11.185Z,6.93
2019-03-19T10:47:41.076Z,7.00
2019-03-19T10:50:16.849Z,6.57
2019-03-19T10:52:46.474Z,5.83
2019-03-19T10:55:15.951Z,5.93
2019-03-19T10:57:45.846Z,5.93
2019-03-19T11:00:18.141Z,4.57
2019-03-19T11:02:47.707Z,5.00
2019-03-19T11:05:17.237Z,5.00
2019-03-19T11:07:46.533Z,5.03
2019-03-19T11:10:15.879Z,4.80
2019-03-19T11:12:45.559Z,4.13
2019-03-19T11:15:16.427Z,4.03
2019-03-19T11:17:45.812Z,4.63
2019-03-19T11:20:16.542Z,4.17
2019-03-19T11:22:46.202Z,4.00
2019-03-19T11:25:15.857Z,3.40
2019-03-19T11:27:45.479Z,4.47
2019-03-19T11:30:19.546Z,3.80
2019-03-19T11:32:49.250Z,4.13
2019-03-19T11:35:18.742Z,4.40
2019-03-19T11:37:48.293Z,4.17
2019-03-19T11:40:18.108Z,4.10
2019-03-19T11:42:47.742Z,3.73
2019-03-19T11:45:17.354Z,3.67
2019-03-19T11:47:46.739Z,4.00
2019-03-19T11:50:17.873Z,4.00
2019-03-19T11:52:47.234Z,3.90
2019-03-19T11:55:18.287Z,4.17
2019-03-19T11:57:47.658Z,4.07
2019-03-19T12:00:21.585Z,2.97
2019-03-19T12:02:51.023Z,3.47
2019-03-19T12:05:20.731Z,3.30
2019-03-19T12:07:50.041Z,3.60
2019-03-19T12:10:19.444Z,3.70
2019-03-19T12:12:48.730Z,3.63
2019-03-19T12:15:18.322Z,3.90
2019-03-19T12:17:48.803Z,4.10
2019-03-19T12:20:20.659Z,3.87
2019-03-19T12:22:49.355Z,4.17
2019-03-19T12:25:18.761Z,4.17
2019-03-19T12:27:48.108Z,3.73
2019-03-19T12:30:22.070Z,3.63
2019-03-19T12:32:48.878Z,3.73
2019-03-19T12:35:18.266Z,3.63
2019-03-19T12:37:47.624Z,3.90
2019-03-19T12:40:17.065Z,3.37
2019-03-19T12:42:46.342Z,3.30
2019-03-19T12:45:16.171Z,3.23
2019-03-19T12:47:46.138Z,3.83
2019-03-19T12:50:16.252Z,3.10
2019-03-19T12:52:45.520Z,3.50
2019-03-19T12:55:14.831Z,3.03
2019-03-19T12:57:44.210Z,3.63
2019-03-19T13:00:15.654Z,3.73
2019-03-19T13:02:45.010Z,3.57
2019-03-19T13:05:14.363Z,3.30
2019-03-19T13:07:44.501Z,3.07
2019-03-19T13:10:16.114Z,2.80
2019-03-19T13:12:45.478Z,3.10
2019-03-19T13:15:15.164Z,2.90
2019-03-19T13:17:44.384Z,3.30
2019-03-19T13:20:13.978Z,2.93
2019-03-19T13:22:43.599Z,2.97
2019-03-19T13:25:14.503Z,3.00
2019-03-19T13:27:43.782Z,3.90
2019-03-19T13:30:15.374Z,2.73
2019-03-19T13:32:45.040Z,2.67
2019-03-19T13:35:14.672Z,2.90
2019-03-19T13:37:44.326Z,3.30
2019-03-19T13:40:15.094Z,2.83
2019-03-19T13:42:44.930Z,2.60
2019-03-19T13:45:14.817Z,3.20
2019-03-19T13:47:44.126Z,3.27
2019-03-19T13:50:14.075Z,3.03
2019-03-19T13:52:43.701Z,2.97
2019-03-19T13:55:13.802Z,3.20
2019-03-19T13:57:43.109Z,3.30
2019-03-19T14:00:13.006Z,2.77
2019-03-19T14:02:42.415Z,2.80
2019-03-19T14:05:11.748Z,2.83
2019-03-19T14:07:41.115Z,3.17
2019-03-19T14:10:12.740Z,3.17
2019-03-19T14:12:42.309Z,3.03
2019-03-19T14:15:13.301Z,3.10
2019-03-19T14:17:42.695Z,3.37
2019-03-19T14:20:13.877Z,3.40
2019-03-19T14:22:45.282Z,3.70
2019-03-19T14:25:16.461Z,3.43
2019-03-19T14:27:46.691Z,3.57
2019-03-19T14:30:17.086Z,3.83
2019-03-19T14:32:46.649Z,3.20
2019-03-19T14:35:16.231Z,3.10
2019-03-19T14:37:46.077Z,3.60
2019-03-19T14:40:16.717Z,2.77
2019-03-19T14:42:46.431Z,3.00
2019-03-19T14:45:16.187Z,2.87
2019-03-19T14:47:45.542Z,2.90
2019-03-19T14:50:15.269Z,3.13
2019-03-19T14:52:44.950Z,3.27
2019-03-19T14:55:14.297Z,3.00
2019-03-19T14:57:43.666Z,2.93
2019-03-19T15:00:14.717Z,3.07
2019-03-19T15:02:44.113Z,2.97
2019-03-19T15:05:14.262Z,3.20
2019-03-19T15:07:44.037Z,3.00
2019-03-19T15:10:14.671Z,2.80
2019-03-19T15:12:44.038Z,2.70
2019-03-19T15:15:15.691Z,3.20
2019-03-19T15:17:45.561Z,3.33
2019-03-19T15:20:16.889Z,3.30
2019-03-19T15:22:46.349Z,3.57
2019-03-19T15:25:15.706Z,3.40
2019-03-19T15:27:45.086Z,3.60
2019-03-19T15:30:15.220Z,3.57
2019-03-19T15:32:44.906Z,3.50
2019-03-19T15:35:14.317Z,4.10
2019-03-19T15:37:43.521Z,3.30
2019-03-19T15:40:16.579Z,3.40
2019-03-19T15:42:45.939Z,3.53
2019-03-19T15:45:15.510Z,4.10
2019-03-19T15:47:44.742Z,3.57
2019-03-19T15:50:15.054Z,3.97
2019-03-19T15:52:44.787Z,3.30
2019-03-19T15:55:14.750Z,3.80
2019-03-19T15:57:44.558Z,3.20
2019-03-19T16:00:14.845Z,4.33
2019-03-19T16:02:44.197Z,3.70
2019-03-19T16:05:14.045Z,5.87
2019-03-19T16:07:43.513Z,17.33
2019-03-19T16:10:12.911Z,11.20
2019-03-19T16:12:42.545Z,16.43
2019-03-19T16:15:12.964Z,5.53
2019-03-19T16:17:42.275Z,6.20
2019-03-19T16:20:13.294Z,5.20
2019-03-19T16:22:45.332Z,6.07
2019-03-19T16:25:14.876Z,5.70
2019-03-19T16:27:44.467Z,5.00
2019-03-19T16:30:14.918Z,5.30
2019-03-19T16:32:44.505Z,5.97
2019-03-19T16:35:14.018Z,5.33
2019-03-19T16:37:43.313Z,3.97
2019-03-19T16:40:15.360Z,4.73
2019-03-19T16:42:44.630Z,4.00
2019-03-19T16:45:14.248Z,4.57
2019-03-19T16:47:43.536Z,4.63
2019-03-19T16:50:13.563Z,4.67
2019-03-19T16:52:42.892Z,5.03
2019-03-19T16:55:13.090Z,5.07
2019-03-19T16:57:42.730Z,4.97
2019-03-19T17:00:14.504Z,4.70
2019-03-19T17:02:44.185Z,4.70
2019-03-19T17:05:16.492Z,7.97
2019-03-19T17:07:45.876Z,4.00
2019-03-19T17:10:15.849Z,7.70
2019-03-19T17:12:45.161Z,7.17
2019-03-19T17:15:15.224Z,8.70
2019-03-19T17:17:44.971Z,7.03
2019-03-19T17:20:17.619Z,8.53
2019-03-19T17:22:46.964Z,8.27
2019-03-19T17:25:16.859Z,10.63
2019-03-19T17:27:46.221Z,9.30
2019-03-19T17:30:20.928Z,8.80
2019-03-19T17:32:50.216Z,6.50
2019-03-19T17:35:19.554Z,5.37
2019-03-19T17:37:48.972Z,6.40
2019-03-19T17:40:18.346Z,7.07
2019-03-19T17:42:49.691Z,6.60
2019-03-19T17:45:22.255Z,5.80
2019-03-19T17:47:51.643Z,6.60
2019-03-19T17:50:21.086Z,6.27
2019-03-19T17:52:51.207Z,4.67
2019-03-19T17:55:20.637Z,4.80
2019-03-19T17:57:50.002Z,4.73
2019-03-19T18:00:23.236Z,7.17
2019-03-19T18:02:52.822Z,5.90
2019-03-19T18:05:22.103Z,6.30
2019-03-19T18:07:51.529Z,5.67
2019-03-19T18:10:20.900Z,5.93
2019-03-19T18:12:54.569Z,5.97
2019-03-19T18:15:24.063Z,5.37
2019-03-19T18:17:53.794Z,5.10
2019-03-19T18:20:23.064Z,4.77
2019-03-19T18:22:52.591Z,5.13
2019-03-19T18:25:22.283Z,4.83
2019-03-19T18:27:51.912Z,5.00
2019-03-19T18:30:21.812Z,5.50
2019-03-19T18:32:53.767Z,5.33
2019-03-19T18:35:23.093Z,4.83
2019-03-19T18:37:52.399Z,5.93
2019-03-19T18:40:22.015Z,5.83
2019-03-19T18:42:51.379Z,5.40
2019-03-19T18:45:21.452Z,5.90
2019-03-19T18:47:50.808Z,6.10
2019-03-19T18:50:22.375Z,6.50
2019-03-19T18:52:51.642Z,6.23
2019-03-19T18:55:20.926Z,6.23
2019-03-19T18:57:50.205Z,6.87
2019-03-19T19:00:19.563Z,7.07
2019-03-19T19:02:50.544Z,6.63
2019-03-19T19:05:20.235Z,6.33
2019-03-19T19:07:49.904Z,5.97
2019-03-19T19:10:21.137Z,8.00
2019-03-19T19:12:50.925Z,6.93
2019-03-19T19:15:20.551Z,6.57
2019-03-19T19:17:49.872Z,6.47
2019-03-19T19:20:19.246Z,6.73
2019-03-19T19:22:48.537Z,6.70
2019-03-19T19:25:18.119Z,7.30
2019-03-19T19:27:47.756Z,7.23
2019-03-19T19:30:18.268Z,6.87
2019-03-19T19:32:47.586Z,7.43
2019-03-19T19:35:16.857Z,8.93
2019-03-19T19:37:46.079Z,9.27
2019-03-19T19:40:15.814Z,9.70
2019-03-19T19:42:45.345Z,8.07
2019-03-19T19:45:14.690Z,8.17
2019-03-19T19:47:44.346Z,8.10
2019-03-19T19:50:14.628Z,6.90
2019-03-19T19:52:43.891Z,6.70
2019-03-19T19:55:14.032Z,6.53
2019-03-19T19:57:43.774Z,6.20
2019-03-19T20:00:14.945Z,6.63
2019-03-19T20:02:44.807Z,7.30
2019-03-19T20:05:14.602Z,6.90
2019-03-19T20:07:43.999Z,7.00
2019-03-19T20:10:15.412Z,6.83
2019-03-19T20:12:44.970Z,8.73
2019-03-19T20:15:14.347Z,7.20
2019-03-19T20:17:44.683Z,6.83
2019-03-19T20:20:15.780Z,7.50
2019-03-19T20:22:45.107Z,6.83
2019-03-19T20:25:14.750Z,6.87
2019-03-19T20:27:44.483Z,7.63
2019-03-19T20:30:17.433Z,6.67
2019-03-19T20:32:46.842Z,7.27
2019-03-19T20:35:16.219Z,8.40
2019-03-19T20:37:45.493Z,7.50
2019-03-19T20:40:15.142Z,8.73
2019-03-19T20:42:45.558Z,7.03
2019-03-19T20:45:15.032Z,7.87
2019-03-19T20:47:44.516Z,7.20
2019-03-19T20:50:33.043Z,7.57
2019-03-19T20:53:02.520Z,7.30
2019-03-19T20:55:31.842Z,7.57
2019-03-19T20:58:01.221Z,8.10
2019-03-19T21:00:30.807Z,7.63
2019-03-19T21:03:00.139Z,8.10
2019-03-19T21:05:29.546Z,8.03
2019-03-19T21:07:59.232Z,8.67
2019-03-19T21:10:28.593Z,8.37
2019-03-19T21:12:57.919Z,7.73
2019-03-19T21:15:27.745Z,8.90
2019-03-19T21:17:57.151Z,8.47
2019-03-19T21:20:26.822Z,8.40
2019-03-19T21:22:56.473Z,9.33
2019-03-19T21:25:26.105Z,9.67
2019-03-19T21:27:56.135Z,8.97
2019-03-19T21:30:25.848Z,9.20
2019-03-19T21:32:55.207Z,8.50
2019-03-19T21:35:24.622Z,8.77
2019-03-19T21:37:53.931Z,9.90
2019-03-19T21:40:23.641Z,9.30
2019-03-19T21:42:53.479Z,10.17
2019-03-19T21:45:23.079Z,10.17
2019-03-19T21:47:53.252Z,10.07
2019-03-19T21:50:23.076Z,9.20
2019-03-19T21:52:52.733Z,9.77
2019-03-19T21:55:22.543Z,9.93
2019-03-19T21:57:52.051Z,8.80
2019-03-19T22:00:21.443Z,10.10
2019-03-19T22:02:50.713Z,10.23
2019-03-19T22:05:20.029Z,10.97
2019-03-19T22:07:49.367Z,11.50
2019-03-19T22:10:19.603Z,10.70
2019-03-19T22:12:49.549Z,10.53
2019-03-19T22:15:19.500Z,10.03
2019-03-19T22:17:48.849Z,10.13
2019-03-19T22:20:18.707Z,10.97
2019-03-19T22:22:48.387Z,11.17
2019-03-19T22:25:18.143Z,10.17
2019-03-19T22:27:47.746Z,10.27
2019-03-19T22:30:17.321Z,10.73
2019-03-19T22:32:47.807Z,11.20
2019-03-19T22:35:17.805Z,10.60
2019-03-19T22:37:48.133Z,11.07
2019-03-19T22:40:17.415Z,11.37
2019-03-19T22:42:47.134Z,10.93
2019-03-19T22:45:16.442Z,11.53
2019-03-19T22:47:46.356Z,11.83
2019-03-19T22:50:15.765Z,11.07
2019-03-19T22:52:45.304Z,11.23
2019-03-19T22:55:14.700Z,11.90
2019-03-19T22:57:44.014Z,11.40
2019-03-19T23:00:26.972Z,10.60
2019-03-19T23:02:56.295Z,11.20
2019-03-19T23:05:25.876Z,10.73
2019-03-19T23:07:55.249Z,11.43
2019-03-19T23:10:24.618Z,11.37
2019-03-19T23:12:53.981Z,11.57
2019-03-19T23:15:23.357Z,10.80
2019-03-19T23:17:52.736Z,9.90
2019-03-19T23:20:22.707Z,10.63
2019-03-19T23:22:52.074Z,10.20
2019-03-19T23:25:22.473Z,11.00
2019-03-19T23:27:52.039Z,11.47
2019-03-19T23:30:21.413Z,11.60
2019-03-19T23:32:50.757Z,11.77
2019-03-19T23:35:20.387Z,11.27
2019-03-19T23:37:49.661Z,11.13
2019-03-19T23:40:18.932Z,11.50
2019-03-19T23:42:48.498Z,11.17
2019-03-19T23:45:17.682Z,11.50
2019-03-19T23:47:47.614Z,10.93
2019-03-19T23:50:16.926Z,11.60
2019-03-19T23:52:46.882Z,11.10
2019-03-19T23:55:16.204Z,11.93
2019-03-19T23:57:45.935Z,12.40
